This is the latest recevied weather packets stored in our database for station/object KC3HIX. If no packets are shown the sender has not sent any weather packets the latest 10 day(s).
| Time | Temp. | Humidity | Pressure | Rain* | Wind** | Luminosity | Snow |
|---|---|---|---|---|---|---|---|
| 1777839004 | 17.78° C | 29% | 1011.7 hPa | 0 mm | - | - | - |
| 1777837804 | 17.78° C | 32% | 1012 hPa | 0 mm | - | - | - |
| 1777836904 | 17.22° C | 33% | 1012.3 hPa | 0 mm | - | - | - |
| 1777834503 | 17.22° C | 34% | 1012.7 hPa | 0 mm | - | - | - |
| 1777834203 | 16.67° C | 29% | 1012.3 hPa | 0 mm | - | - | - |
| 1777833303 | 16.11° C | 32% | 1012.7 hPa | 0 mm | - | - | - |
| 1777831503 | 14.44° C | 33% | 1013 hPa | 0 mm | - | - | - |
| 1777830903 | 15° C | 34% | 1013 hPa | 0 mm | - | - | - |
| 1777827908 | 14.44° C | 33% | 1014.1 hPa | 0 mm | - | - | - |
| 1777826408 | 13.33° C | 42% | 1014.1 hPa | 0 mm | - | - | - |
| 1777825208 | 12.78° C | 36% | 1014.4 hPa | 0 mm | - | - | - |
| 1777824908 | 12.78° C | 36% | 1014.8 hPa | 0 mm | - | - | - |
| 1777824308 | 13.33° C | 36% | 1014.8 hPa | 0 mm | - | - | - |
| 1777823729 | 13.33° C | 38% | 1014.8 hPa | 0 mm | - | - | - |
| 1777823108 | 13.33° C | 41% | 1014.4 hPa | 0 mm | - | - | - |
| 1777819508 | 11.11° C | 44% | 1015.1 hPa | 0 mm | - | - | - |
| 1777818307 | 11.67° C | 36% | 1015.1 hPa | 0 mm | - | - | - |
| 1777818007 | 11.67° C | 42% | 1015.1 hPa | 0 mm | - | - | - |
| 1777817707 | 11.67° C | 33% | 1015.1 hPa | 0 mm | - | - | - |
| 1777817408 | 12.22° C | 36% | 1015.1 hPa | 0 mm | - | - | - |
| 1777815307 | 13.33° C | 34% | 1015.1 hPa | 0 mm | - | - | - |
| 1777813507 | 13.33° C | 40% | 1015.4 hPa | 0 mm | - | - | - |
| 1777811107 | 11.11° C | 50% | 1015.4 hPa | 0 mm | - | - | - |
| 1777809007 | 6.67° C | 67% | 1015.4 hPa | 0 mm | - | - | - |
| 1777808107 | 4.44° C | 76% | 1015.4 hPa | 0 mm | - | - | - |
* Rain latest hour (hover to see other rain measurements)
** Current wind speed in m/s (hover to see current wind gust speed)